sensor_id;sensor_type;location;lat;lon;timestamp;temperature;humidity
1123;DHT22;548;48.778;9.252;2023-01-10T01:56:31;6.70;99.90
1123;DHT22;548;48.778;9.252;2023-01-10T01:59:01;6.80;99.90
1123;DHT22;548;48.778;9.252;2023-01-10T02:01:33;6.80;99.90
1123;DHT22;548;48.778;9.252;2023-01-10T02:04:07;6.80;99.90
1123;DHT22;548;48.778;9.252;2023-01-10T02:06:35;6.80;99.90
1123;DHT22;548;48.778;9.252;2023-01-10T02:09:07;6.90;99.90
1123;DHT22;548;48.778;9.252;2023-01-10T02:11:38;7.00;99.90
1123;DHT22;548;48.778;9.252;2023-01-10T02:14:06;7.00;99.90
1123;DHT22;548;48.778;9.252;2023-01-10T02:16:33;7.10;99.90
1123;DHT22;548;48.778;9.252;2023-01-10T02:19:00;7.20;99.90
1123;DHT22;548;48.778;9.252;2023-01-10T02:22:06;7.10;99.90
1123;DHT22;548;48.778;9.252;2023-01-10T02:27:45;7.00;99.90
1123;DHT22;548;48.778;9.252;2023-01-10T02:30:45;6.90;99.90
1123;DHT22;548;48.778;9.252;2023-01-10T02:33:21;6.80;99.90
1123;DHT22;548;48.778;9.252;2023-01-10T02:36:04;6.60;99.90
1123;DHT22;548;48.778;9.252;2023-01-10T02:38:49;6.60;99.90
1123;DHT22;548;48.778;9.252;2023-01-10T02:41:24;6.60;99.90
1123;DHT22;548;48.778;9.252;2023-01-10T02:43:56;6.50;99.90
1123;DHT22;548;48.778;9.252;2023-01-10T02:46:27;6.50;99.90
1123;DHT22;548;48.778;9.252;2023-01-10T02:48:56;6.50;99.90
1123;DHT22;548;48.778;9.252;2023-01-10T02:51:25;6.50;99.90
1123;DHT22;548;48.778;9.252;2023-01-10T02:53:56;6.40;99.90
1123;DHT22;548;48.778;9.252;2023-01-10T02:59:39;6.30;99.90
1123;DHT22;548;48.778;9.252;2023-01-10T03:02:13;6.30;99.90
1123;DHT22;548;48.778;9.252;2023-01-10T03:04:51;6.30;99.90
1123;DHT22;548;48.778;9.252;2023-01-10T03:07:23;6.30;99.90
1123;DHT22;548;48.778;9.252;2023-01-10T03:09:54;6.30;99.90
1123;DHT22;548;48.778;9.252;2023-01-10T03:12:29;6.30;99.90
1123;DHT22;548;48.778;9.252;2023-01-10T03:14:58;6.30;99.90
1123;DHT22;548;48.778;9.252;2023-01-10T03:17:27;6.30;99.90
1123;DHT22;548;48.778;9.252;2023-01-10T03:19:59;6.20;99.90
1123;DHT22;548;48.778;9.252;2023-01-10T03:22:28;6.20;99.90
1123;DHT22;548;48.778;9.252;2023-01-10T03:24:57;6.30;99.90
1123;DHT22;548;48.778;9.252;2023-01-10T03:27:29;6.20;99.90
1123;DHT22;548;48.778;9.252;2023-01-10T03:30:04;6.20;99.90
1123;DHT22;548;48.778;9.252;2023-01-10T03:32:32;6.20;99.90
1123;DHT22;548;48.778;9.252;2023-01-10T03:35:01;6.20;99.90
1123;DHT22;548;48.778;9.252;2023-01-10T03:37:34;6.20;99.90
1123;DHT22;548;48.778;9.252;2023-01-10T03:40:07;6.20;99.90
1123;DHT22;548;48.778;9.252;2023-01-10T03:42:42;6.20;99.90
1123;DHT22;548;48.778;9.252;2023-01-10T03:45:31;6.30;99.90
1123;DHT22;548;48.778;9.252;2023-01-10T03:48:00;6.30;99.90
1123;DHT22;548;48.778;9.252;2023-01-10T03:50:30;6.20;99.90
1123;DHT22;548;48.778;9.252;2023-01-10T03:52:58;6.20;99.90
1123;DHT22;548;48.778;9.252;2023-01-10T03:55:27;6.20;99.90
1123;DHT22;548;48.778;9.252;2023-01-10T03:57:54;6.30;99.90
1123;DHT22;548;48.778;9.252;2023-01-10T04:00:21;6.30;99.90
1123;DHT22;548;48.778;9.252;2023-01-10T04:02:48;6.30;99.90
1123;DHT22;548;48.778;9.252;2023-01-10T04:05:15;6.20;99.90
1123;DHT22;548;48.778;9.252;2023-01-10T04:07:43;6.30;99.90
1123;DHT22;548;48.778;9.252;2023-01-10T04:10:10;6.20;99.90
1123;DHT22;548;48.778;9.252;2023-01-10T04:12:37;6.30;99.90
1123;DHT22;548;48.778;9.252;2023-01-10T04:15:04;6.30;99.90
1123;DHT22;548;48.778;9.252;2023-01-10T04:17:31;6.20;99.90
1123;DHT22;548;48.778;9.252;2023-01-10T04:19:58;6.10;99.90
1123;DHT22;548;48.778;9.252;2023-01-10T04:22:25;6.00;99.90
1123;DHT22;548;48.778;9.252;2023-01-10T04:24:53;6.00;99.90
1123;DHT22;548;48.778;9.252;2023-01-10T04:27:19;5.90;99.90
1123;DHT22;548;48.778;9.252;2023-01-10T04:29:46;5.90;99.90
1123;DHT22;548;48.778;9.252;2023-01-10T04:32:13;5.90;99.90
1123;DHT22;548;48.778;9.252;2023-01-10T04:34:40;5.90;99.90
1123;DHT22;548;48.778;9.252;2023-01-10T04:37:06;5.80;99.90
1123;DHT22;548;48.778;9.252;2023-01-10T04:39:33;5.90;99.90
1123;DHT22;548;48.778;9.252;2023-01-10T04:42:01;5.90;99.90
1123;DHT22;548;48.778;9.252;2023-01-10T04:44:28;5.90;99.90
1123;DHT22;548;48.778;9.252;2023-01-10T04:46:54;5.80;99.90
1123;DHT22;548;48.778;9.252;2023-01-10T04:49:21;5.80;99.90
1123;DHT22;548;48.778;9.252;2023-01-10T04:51:48;5.70;99.90
1123;DHT22;548;48.778;9.252;2023-01-10T04:54:18;5.70;99.90
1123;DHT22;548;48.778;9.252;2023-01-10T04:56:45;5.70;99.90
1123;DHT22;548;48.778;9.252;2023-01-10T04:59:13;5.70;99.90
1123;DHT22;548;48.778;9.252;2023-01-10T05:01:40;5.60;99.90
1123;DHT22;548;48.778;9.252;2023-01-10T05:04:07;5.60;99.90
1123;DHT22;548;48.778;9.252;2023-01-10T05:06:34;5.60;99.90
1123;DHT22;548;48.778;9.252;2023-01-10T05:09:01;5.50;99.90
1123;DHT22;548;48.778;9.252;2023-01-10T05:11:28;5.50;99.90
1123;DHT22;548;48.778;9.252;2023-01-10T05:13:55;5.50;99.90
1123;DHT22;548;48.778;9.252;2023-01-10T05:16:23;5.50;99.90
1123;DHT22;548;48.778;9.252;2023-01-10T05:18:50;5.40;99.90
1123;DHT22;548;48.778;9.252;2023-01-10T05:21:17;5.40;99.90
1123;DHT22;548;48.778;9.252;2023-01-10T05:23:43;5.30;99.90
1123;DHT22;548;48.778;9.252;2023-01-10T05:26:12;5.40;99.90
1123;DHT22;548;48.778;9.252;2023-01-10T05:28:39;5.40;99.90
1123;DHT22;548;48.778;9.252;2023-01-10T05:31:07;5.50;99.90
1123;DHT22;548;48.778;9.252;2023-01-10T05:33:35;5.60;99.90
1123;DHT22;548;48.778;9.252;2023-01-10T05:36:03;5.70;99.90
1123;DHT22;548;48.778;9.252;2023-01-10T05:38:30;5.70;99.90
1123;DHT22;548;48.778;9.252;2023-01-10T05:40:58;5.80;99.90
1123;DHT22;548;48.778;9.252;2023-01-10T05:43:25;5.90;99.90
1123;DHT22;548;48.778;9.252;2023-01-10T05:45:52;5.90;99.90
1123;DHT22;548;48.778;9.252;2023-01-10T05:48:19;6.00;99.90
1123;DHT22;548;48.778;9.252;2023-01-10T05:50:48;6.00;99.90
1123;DHT22;548;48.778;9.252;2023-01-10T05:53:15;6.10;99.90
1123;DHT22;548;48.778;9.252;2023-01-10T05:55:42;6.20;99.90
1123;DHT22;548;48.778;9.252;2023-01-10T05:58:09;6.20;99.90
1123;DHT22;548;48.778;9.252;2023-01-10T06:00:36;6.30;99.90
1123;DHT22;548;48.778;9.252;2023-01-10T06:03:04;6.30;99.90
1123;DHT22;548;48.778;9.252;2023-01-10T06:05:30;6.40;99.90
1123;DHT22;548;48.778;9.252;2023-01-10T06:07:58;6.50;99.90
1123;DHT22;548;48.778;9.252;2023-01-10T06:10:25;6.50;99.90
1123;DHT22;548;48.778;9.252;2023-01-10T06:12:52;6.50;99.90
1123;DHT22;548;48.778;9.252;2023-01-10T06:15:18;6.50;99.90
1123;DHT22;548;48.778;9.252;2023-01-10T06:17:45;6.60;99.90
1123;DHT22;548;48.778;9.252;2023-01-10T06:20:12;6.50;99.90
1123;DHT22;548;48.778;9.252;2023-01-10T06:22:39;6.60;99.90
1123;DHT22;548;48.778;9.252;2023-01-10T06:25:09;6.60;99.90
1123;DHT22;548;48.778;9.252;2023-01-10T06:27:38;6.70;99.90
1123;DHT22;548;48.778;9.252;2023-01-10T06:30:06;6.60;99.90
1123;DHT22;548;48.778;9.252;2023-01-10T06:32:33;6.70;99.90
1123;DHT22;548;48.778;9.252;2023-01-10T06:34:59;6.70;99.90
1123;DHT22;548;48.778;9.252;2023-01-10T06:37:26;6.70;99.90
1123;DHT22;548;48.778;9.252;2023-01-10T06:39:53;6.70;99.90
1123;DHT22;548;48.778;9.252;2023-01-10T06:42:21;6.70;99.90
1123;DHT22;548;48.778;9.252;2023-01-10T06:44:48;6.80;99.90
1123;DHT22;548;48.778;9.252;2023-01-10T06:47:14;6.80;99.90
1123;DHT22;548;48.778;9.252;2023-01-10T06:49:41;6.70;99.90
1123;DHT22;548;48.778;9.252;2023-01-10T06:52:08;6.70;99.90
1123;DHT22;548;48.778;9.252;2023-01-10T06:54:34;6.70;99.90
1123;DHT22;548;48.778;9.252;2023-01-10T06:57:01;6.80;99.90
1123;DHT22;548;48.778;9.252;2023-01-10T06:59:29;6.80;99.90
1123;DHT22;548;48.778;9.252;2023-01-10T07:01:56;6.70;99.90
1123;DHT22;548;48.778;9.252;2023-01-10T07:04:22;6.70;99.90
1123;DHT22;548;48.778;9.252;2023-01-10T07:06:51;6.80;99.90
1123;DHT22;548;48.778;9.252;2023-01-10T07:09:17;6.80;99.90
1123;DHT22;548;48.778;9.252;2023-01-10T07:11:44;6.80;99.90
1123;DHT22;548;48.778;9.252;2023-01-10T07:14:11;6.80;99.90
1123;DHT22;548;48.778;9.252;2023-01-10T07:16:39;6.80;99.90
1123;DHT22;548;48.778;9.252;2023-01-10T07:19:05;6.70;99.90
1123;DHT22;548;48.778;9.252;2023-01-10T07:21:32;6.70;99.90
1123;DHT22;548;48.778;9.252;2023-01-10T07:23:59;6.70;99.90
1123;DHT22;548;48.778;9.252;2023-01-10T07:26:25;6.80;99.90
1123;DHT22;548;48.778;9.252;2023-01-10T07:28:52;6.70;99.90
1123;DHT22;548;48.778;9.252;2023-01-10T07:31:19;6.70;99.90
1123;DHT22;548;48.778;9.252;2023-01-10T07:33:49;6.80;99.90
1123;DHT22;548;48.778;9.252;2023-01-10T07:36:16;6.90;99.90
1123;DHT22;548;48.778;9.252;2023-01-10T07:38:43;6.90;99.90
1123;DHT22;548;48.778;9.252;2023-01-10T07:41:10;6.90;99.90
1123;DHT22;548;48.778;9.252;2023-01-10T07:43:37;7.00;99.90
1123;DHT22;548;48.778;9.252;2023-01-10T07:46:05;7.00;99.90
1123;DHT22;548;48.778;9.252;2023-01-10T07:48:34;6.90;99.90
1123;DHT22;548;48.778;9.252;2023-01-10T07:51:02;7.00;99.90
1123;DHT22;548;48.778;9.252;2023-01-10T07:53:29;6.90;99.90
1123;DHT22;548;48.778;9.252;2023-01-10T07:55:58;7.00;99.90
1123;DHT22;548;48.778;9.252;2023-01-10T07:58:25;7.00;99.90
1123;DHT22;548;48.778;9.252;2023-01-10T08:00:56;7.10;99.90
1123;DHT22;548;48.778;9.252;2023-01-10T08:03:23;7.10;99.90
1123;DHT22;548;48.778;9.252;2023-01-10T08:05:55;7.30;99.90
1123;DHT22;548;48.778;9.252;2023-01-10T08:08:23;7.30;99.90
1123;DHT22;548;48.778;9.252;2023-01-10T08:10:50;7.40;99.90
1123;DHT22;548;48.778;9.252;2023-01-10T08:13:17;7.40;99.90
1123;DHT22;548;48.778;9.252;2023-01-10T08:15:44;7.50;99.90
1123;DHT22;548;48.778;9.252;2023-01-10T08:18:11;7.50;99.90
1123;DHT22;548;48.778;9.252;2023-01-10T08:20:38;7.50;99.90
1123;DHT22;548;48.778;9.252;2023-01-10T08:23:05;7.50;99.90
1123;DHT22;548;48.778;9.252;2023-01-10T08:25:33;7.50;99.90
1123;DHT22;548;48.778;9.252;2023-01-10T08:28:00;7.60;99.90
1123;DHT22;548;48.778;9.252;2023-01-10T08:30:27;7.60;99.90
1123;DHT22;548;48.778;9.252;2023-01-10T08:36:14;7.70;99.90
1123;DHT22;548;48.778;9.252;2023-01-10T08:38:42;7.70;99.90
1123;DHT22;548;48.778;9.252;2023-01-10T08:41:10;7.60;99.90
1123;DHT22;548;48.778;9.252;2023-01-10T08:43:38;7.50;99.90
1123;DHT22;548;48.778;9.252;2023-01-10T08:46:05;7.50;99.90
1123;DHT22;548;48.778;9.252;2023-01-10T08:48:32;7.60;99.90
1123;DHT22;548;48.778;9.252;2023-01-10T08:51:04;7.50;99.90
1123;DHT22;548;48.778;9.252;2023-01-10T08:53:31;7.70;99.90
1123;DHT22;548;48.778;9.252;2023-01-10T08:55:57;7.80;99.90
1123;DHT22;548;48.778;9.252;2023-01-10T08:58:25;7.80;99.90
1123;DHT22;548;48.778;9.252;2023-01-10T09:00:52;7.70;99.90
1123;DHT22;548;48.778;9.252;2023-01-10T09:03:19;7.80;99.90
1123;DHT22;548;48.778;9.252;2023-01-10T09:05:45;7.80;99.90
1123;DHT22;548;48.778;9.252;2023-01-10T09:08:12;8.00;99.90
1123;DHT22;548;48.778;9.252;2023-01-10T09:10:39;8.00;99.90
1123;DHT22;548;48.778;9.252;2023-01-10T09:13:06;8.10;99.90
1123;DHT22;548;48.778;9.252;2023-01-10T09:15:36;8.10;99.90
1123;DHT22;548;48.778;9.252;2023-01-10T09:18:05;8.00;99.90
1123;DHT22;548;48.778;9.252;2023-01-10T09:20:34;8.00;99.90
1123;DHT22;548;48.778;9.252;2023-01-10T09:23:04;8.10;99.90
1123;DHT22;548;48.778;9.252;2023-01-10T09:25:31;8.40;99.90
1123;DHT22;548;48.778;9.252;2023-01-10T09:27:59;8.30;99.90
1123;DHT22;548;48.778;9.252;2023-01-10T09:30:27;8.00;99.90
1123;DHT22;548;48.778;9.252;2023-01-10T09:32:56;7.80;99.90
1123;DHT22;548;48.778;9.252;2023-01-10T09:35:24;7.60;99.90
1123;DHT22;548;48.778;9.252;2023-01-10T09:37:53;7.70;99.90
1123;DHT22;548;48.778;9.252;2023-01-10T09:40:26;7.70;99.90
1123;DHT22;548;48.778;9.252;2023-01-10T09:43:04;7.80;99.90
1123;DHT22;548;48.778;9.252;2023-01-10T09:45:38;7.60;99.90
1123;DHT22;548;48.778;9.252;2023-01-10T09:48:10;7.30;99.90
1123;DHT22;548;48.778;9.252;2023-01-10T09:50:46;7.20;99.90
1123;DHT22;548;48.778;9.252;2023-01-10T09:53:19;7.10;99.90
1123;DHT22;548;48.778;9.252;2023-01-10T09:55:51;7.00;99.90
1123;DHT22;548;48.778;9.252;2023-01-10T09:58:19;7.00;99.90
1123;DHT22;548;48.778;9.252;2023-01-10T10:00:51;7.00;99.90
1123;DHT22;548;48.778;9.252;2023-01-10T10:03:26;7.10;99.90
1123;DHT22;548;48.778;9.252;2023-01-10T10:05:54;7.20;99.90
1123;DHT22;548;48.778;9.252;2023-01-10T10:08:20;7.30;99.90
1123;DHT22;548;48.778;9.252;2023-01-10T10:10:57;7.40;99.90
1123;DHT22;548;48.778;9.252;2023-01-10T10:13:35;7.40;99.90
1123;DHT22;548;48.778;9.252;2023-01-10T10:16:13;7.30;99.90
1123;DHT22;548;48.778;9.252;2023-01-10T10:18:55;7.30;99.90
1123;DHT22;548;48.778;9.252;2023-01-10T10:21:29;7.30;99.90
1123;DHT22;548;48.778;9.252;2023-01-10T10:24:12;7.40;99.90
1123;DHT22;548;48.778;9.252;2023-01-10T10:26:47;7.40;99.90
1123;DHT22;548;48.778;9.252;2023-01-10T10:29:55;7.50;99.90
1123;DHT22;548;48.778;9.252;2023-01-10T10:32:34;7.70;99.90
1123;DHT22;548;48.778;9.252;2023-01-10T10:35:09;7.70;99.90
1123;DHT22;548;48.778;9.252;2023-01-10T10:37:40;7.90;99.90
1123;DHT22;548;48.778;9.252;2023-01-10T10:40:17;7.80;99.90
1123;DHT22;548;48.778;9.252;2023-01-10T10:42:47;7.80;99.90
1123;DHT22;548;48.778;9.252;2023-01-10T10:45:18;8.00;99.90
1123;DHT22;548;48.778;9.252;2023-01-10T10:48:14;8.10;99.90
1123;DHT22;548;48.778;9.252;2023-01-10T10:50:49;8.20;99.90
1123;DHT22;548;48.778;9.252;2023-01-10T10:53:17;8.20;99.90
1123;DHT22;548;48.778;9.252;2023-01-10T10:55:44;8.00;99.90
1123;DHT22;548;48.778;9.252;2023-01-10T10:58:11;7.70;99.90
1123;DHT22;548;48.778;9.252;2023-01-10T11:00:39;7.70;99.90
1123;DHT22;548;48.778;9.252;2023-01-10T11:03:25;8.30;99.90
1123;DHT22;548;48.778;9.252;2023-01-10T11:05:54;8.40;99.90
1123;DHT22;548;48.778;9.252;2023-01-10T11:08:21;8.30;99.90
1123;DHT22;548;48.778;9.252;2023-01-10T11:10:53;8.40;99.90
1123;DHT22;548;48.778;9.252;2023-01-10T11:13:34;8.50;99.90
1123;DHT22;548;48.778;9.252;2023-01-10T11:16:07;8.30;99.90
1123;DHT22;548;48.778;9.252;2023-01-10T11:18:33;8.10;99.90
1123;DHT22;548;48.778;9.252;2023-01-10T11:21:07;8.00;99.90
1123;DHT22;548;48.778;9.252;2023-01-10T11:23:39;8.00;99.90
1123;DHT22;548;48.778;9.252;2023-01-10T11:26:09;8.00;99.90
1123;DHT22;548;48.778;9.252;2023-01-10T11:28:36;7.90;99.90
1123;DHT22;548;48.778;9.252;2023-01-10T11:31:03;7.90;99.90
1123;DHT22;548;48.778;9.252;2023-01-10T11:33:32;8.10;99.90
1123;DHT22;548;48.778;9.252;2023-01-10T11:36:02;8.00;99.90
1123;DHT22;548;48.778;9.252;2023-01-10T11:38:32;8.00;99.90
1123;DHT22;548;48.778;9.252;2023-01-10T11:41:00;8.20;99.90
1123;DHT22;548;48.778;9.252;2023-01-10T11:43:30;8.40;99.90
1123;DHT22;548;48.778;9.252;2023-01-10T11:45:59;8.50;99.90
1123;DHT22;548;48.778;9.252;2023-01-10T11:48:39;8.50;99.90
1123;DHT22;548;48.778;9.252;2023-01-10T11:51:16;8.60;99.90
1123;DHT22;548;48.778;9.252;2023-01-10T11:53:46;8.80;99.90
1123;DHT22;548;48.778;9.252;2023-01-10T11:56:27;9.00;99.90
1123;DHT22;548;48.778;9.252;2023-01-10T11:58:56;9.10;99.90
1123;DHT22;548;48.778;9.252;2023-01-10T12:01:26;9.40;99.90
1123;DHT22;548;48.778;9.252;2023-01-10T12:03:54;9.70;99.90
1123;DHT22;548;48.778;9.252;2023-01-10T12:06:21;9.50;99.90
1123;DHT22;548;48.778;9.252;2023-01-10T12:08:49;9.40;99.90
1123;DHT22;548;48.778;9.252;2023-01-10T12:11:23;9.20;99.90
1123;DHT22;548;48.778;9.252;2023-01-10T12:13:53;9.20;99.90
1123;DHT22;548;48.778;9.252;2023-01-10T12:16:22;9.40;99.90
1123;DHT22;548;48.778;9.252;2023-01-10T12:18:50;9.30;99.90
1123;DHT22;548;48.778;9.252;2023-01-10T12:21:21;9.40;99.90
1123;DHT22;548;48.778;9.252;2023-01-10T12:23:50;9.60;99.90
1123;DHT22;548;48.778;9.252;2023-01-10T12:26:18;9.80;99.90
1123;DHT22;548;48.778;9.252;2023-01-10T12:28:49;10.10;99.90
1123;DHT22;548;48.778;9.252;2023-01-10T12:31:19;10.70;99.90
1123;DHT22;548;48.778;9.252;2023-01-10T12:33:52;10.90;99.90
1123;DHT22;548;48.778;9.252;2023-01-10T12:36:30;10.90;99.90
1123;DHT22;548;48.778;9.252;2023-01-10T12:39:04;10.60;99.90
1123;DHT22;548;48.778;9.252;2023-01-10T12:41:41;10.30;99.90
1123;DHT22;548;48.778;9.252;2023-01-10T12:44:30;9.90;99.90
1123;DHT22;548;48.778;9.252;2023-01-10T12:47:02;9.80;99.90
1123;DHT22;548;48.778;9.252;2023-01-10T12:49:32;9.70;99.90
1123;DHT22;548;48.778;9.252;2023-01-10T12:52:05;9.60;99.90
1123;DHT22;548;48.778;9.252;2023-01-10T12:54:35;9.80;99.90
1123;DHT22;548;48.778;9.252;2023-01-10T12:57:05;10.10;99.90
1123;DHT22;548;48.778;9.252;2023-01-10T12:59:42;10.20;99.90
1123;DHT22;548;48.778;9.252;2023-01-10T13:02:14;10.30;99.90
1123;DHT22;548;48.778;9.252;2023-01-10T13:04:42;10.40;99.90
1123;DHT22;548;48.778;9.252;2023-01-10T13:07:11;10.30;99.90
1123;DHT22;548;48.778;9.252;2023-01-10T13:09:41;10.00;99.90
1123;DHT22;548;48.778;9.252;2023-01-10T13:12:11;10.00;99.90
1123;DHT22;548;48.778;9.252;2023-01-10T13:14:46;9.80;99.90
1123;DHT22;548;48.778;9.252;2023-01-10T13:17:24;9.80;99.90
1123;DHT22;548;48.778;9.252;2023-01-10T13:20:17;10.00;99.90
1123;DHT22;548;48.778;9.252;2023-01-10T13:22:45;10.00;99.90
1123;DHT22;548;48.778;9.252;2023-01-10T13:25:20;9.90;99.90
1123;DHT22;548;48.778;9.252;2023-01-10T13:27:54;9.80;99.90
1123;DHT22;548;48.778;9.252;2023-01-10T13:30:26;9.50;99.90
1123;DHT22;548;48.778;9.252;2023-01-10T13:33:00;9.40;99.90
1123;DHT22;548;48.778;9.252;2023-01-10T13:35:37;9.30;99.90
1123;DHT22;548;48.778;9.252;2023-01-10T13:38:13;9.20;99.90
1123;DHT22;548;48.778;9.252;2023-01-10T13:40:56;9.20;99.90
1123;DHT22;548;48.778;9.252;2023-01-10T13:49:46;9.40;99.90
1123;DHT22;548;48.778;9.252;2023-01-10T13:52:36;9.50;99.90
1123;DHT22;548;48.778;9.252;2023-01-10T13:55:28;9.60;99.90
1123;DHT22;548;48.778;9.252;2023-01-10T13:58:01;9.70;99.90
1123;DHT22;548;48.778;9.252;2023-01-10T14:00:48;9.60;99.90
1123;DHT22;548;48.778;9.252;2023-01-10T14:03:45;9.50;99.90
1123;DHT22;548;48.778;9.252;2023-01-10T14:06:18;9.50;99.90
1123;DHT22;548;48.778;9.252;2023-01-10T14:08:51;9.50;99.90
1123;DHT22;548;48.778;9.252;2023-01-10T14:11:19;9.50;99.90
1123;DHT22;548;48.778;9.252;2023-01-10T14:13:51;9.60;99.90
1123;DHT22;548;48.778;9.252;2023-01-10T14:16:33;9.50;99.90
1123;DHT22;548;48.778;9.252;2023-01-10T14:19:02;9.70;99.90
1123;DHT22;548;48.778;9.252;2023-01-10T14:21:32;9.90;99.90
1123;DHT22;548;48.778;9.252;2023-01-10T14:24:03;10.00;99.90
1123;DHT22;548;48.778;9.252;2023-01-10T14:26:32;10.10;99.90
1123;DHT22;548;48.778;9.252;2023-01-10T14:29:05;10.00;99.90
1123;DHT22;548;48.778;9.252;2023-01-10T14:31:34;10.00;99.90
1123;DHT22;548;48.778;9.252;2023-01-10T14:34:03;10.10;99.40
1123;DHT22;548;48.778;9.252;2023-01-10T14:36:48;9.70;99.90
1123;DHT22;548;48.778;9.252;2023-01-10T14:39:15;9.40;99.90
1123;DHT22;548;48.778;9.252;2023-01-10T14:41:43;9.20;99.90
1123;DHT22;548;48.778;9.252;2023-01-10T14:44:17;9.20;99.90
1123;DHT22;548;48.778;9.252;2023-01-10T14:46:45;9.20;99.90
1123;DHT22;548;48.778;9.252;2023-01-10T14:49:22;9.00;99.90
1123;DHT22;548;48.778;9.252;2023-01-10T14:51:49;8.80;99.90
1123;DHT22;548;48.778;9.252;2023-01-10T14:54:18;8.60;99.90
1123;DHT22;548;48.778;9.252;2023-01-10T14:56:46;8.60;99.90
1123;DHT22;548;48.778;9.252;2023-01-10T14:59:33;8.50;99.90
1123;DHT22;548;48.778;9.252;2023-01-10T15:02:08;8.40;99.90
1123;DHT22;548;48.778;9.252;2023-01-10T15:04:48;8.30;99.90
1123;DHT22;548;48.778;9.252;2023-01-10T15:07:17;8.20;99.90
1123;DHT22;548;48.778;9.252;2023-01-10T15:09:48;8.20;99.90
1123;DHT22;548;48.778;9.252;2023-01-10T15:12:15;8.10;99.90
1123;DHT22;548;48.778;9.252;2023-01-10T15:14:44;8.00;99.90
1123;DHT22;548;48.778;9.252;2023-01-10T15:17:14;8.00;99.90
1123;DHT22;548;48.778;9.252;2023-01-10T15:19:43;8.00;99.90
1123;DHT22;548;48.778;9.252;2023-01-10T15:22:21;7.90;99.90
1123;DHT22;548;48.778;9.252;2023-01-10T15:24:58;7.90;99.90
1123;DHT22;548;48.778;9.252;2023-01-10T15:27:25;7.90;99.90
1123;DHT22;548;48.778;9.252;2023-01-10T15:29:53;7.80;99.90
1123;DHT22;548;48.778;9.252;2023-01-10T15:32:25;7.70;99.90
1123;DHT22;548;48.778;9.252;2023-01-10T15:34:54;7.80;99.90
1123;DHT22;548;48.778;9.252;2023-01-10T15:37:24;7.70;99.90
1123;DHT22;548;48.778;9.252;2023-01-10T15:39:52;7.60;99.90
1123;DHT22;548;48.778;9.252;2023-01-10T15:42:21;7.60;99.90
1123;DHT22;548;48.778;9.252;2023-01-10T15:44:48;7.60;99.90
1123;DHT22;548;48.778;9.252;2023-01-10T15:47:39;7.60;99.90
1123;DHT22;548;48.778;9.252;2023-01-10T15:50:18;7.60;99.90
1123;DHT22;548;48.778;9.252;2023-01-10T15:52:49;7.60;99.90
1123;DHT22;548;48.778;9.252;2023-01-10T15:55:40;7.50;99.90
1123;DHT22;548;48.778;9.252;2023-01-10T15:58:15;7.50;99.90
1123;DHT22;548;48.778;9.252;2023-01-10T16:00:44;7.50;99.90
1123;DHT22;548;48.778;9.252;2023-01-10T16:03:22;7.40;99.90
1123;DHT22;548;48.778;9.252;2023-01-10T16:05:53;7.40;99.90
1123;DHT22;548;48.778;9.252;2023-01-10T16:08:22;7.40;99.90
1123;DHT22;548;48.778;9.252;2023-01-10T16:10:55;7.40;99.90
1123;DHT22;548;48.778;9.252;2023-01-10T16:13:22;7.30;99.90
1123;DHT22;548;48.778;9.252;2023-01-10T16:15:51;7.30;99.90
1123;DHT22;548;48.778;9.252;2023-01-10T16:18:19;7.20;99.90
1123;DHT22;548;48.778;9.252;2023-01-10T16:20:48;7.20;99.90
1123;DHT22;548;48.778;9.252;2023-01-10T16:23:17;7.20;99.90
1123;DHT22;548;48.778;9.252;2023-01-10T16:25:48;7.10;99.90
1123;DHT22;548;48.778;9.252;2023-01-10T16:28:17;7.10;99.90
1123;DHT22;548;48.778;9.252;2023-01-10T16:30:44;7.10;99.90
1123;DHT22;548;48.778;9.252;2023-01-10T16:33:14;7.10;99.90
1123;DHT22;548;48.778;9.252;2023-01-10T16:35:43;7.00;99.90
1123;DHT22;548;48.778;9.252;2023-01-10T16:38:11;7.00;99.90
1123;DHT22;548;48.778;9.252;2023-01-10T16:41:08;6.90;99.90
1123;DHT22;548;48.778;9.252;2023-01-10T16:43:49;6.90;99.90
1123;DHT22;548;48.778;9.252;2023-01-10T16:46:16;6.90;99.90
1123;DHT22;548;48.778;9.252;2023-01-10T16:48:43;6.90;99.90
1123;DHT22;548;48.778;9.252;2023-01-10T16:51:16;6.90;99.90
1123;DHT22;548;48.778;9.252;2023-01-10T16:53:44;6.90;99.90
1123;DHT22;548;48.778;9.252;2023-01-10T16:56:12;6.90;99.90
1123;DHT22;548;48.778;9.252;2023-01-10T16:58:39;6.80;99.90
1123;DHT22;548;48.778;9.252;2023-01-10T17:01:07;6.80;99.90
1123;DHT22;548;48.778;9.252;2023-01-10T17:03:35;6.80;99.90
1123;DHT22;548;48.778;9.252;2023-01-10T17:06:03;6.80;99.90
1123;DHT22;548;48.778;9.252;2023-01-10T17:08:31;6.80;99.90
1123;DHT22;548;48.778;9.252;2023-01-10T17:10:59;6.80;99.90
1123;DHT22;548;48.778;9.252;2023-01-10T17:13:30;6.80;99.90
1123;DHT22;548;48.778;9.252;2023-01-10T17:15:57;6.80;99.90
1123;DHT22;548;48.778;9.252;2023-01-10T17:18:24;6.70;99.90
1123;DHT22;548;48.778;9.252;2023-01-10T17:20:53;6.70;99.90
1123;DHT22;548;48.778;9.252;2023-01-10T17:23:21;6.70;99.90
1123;DHT22;548;48.778;9.252;2023-01-10T17:25:57;6.70;99.90
1123;DHT22;548;48.778;9.252;2023-01-10T17:28:24;6.70;99.90
1123;DHT22;548;48.778;9.252;2023-01-10T17:30:51;6.70;99.90
1123;DHT22;548;48.778;9.252;2023-01-10T17:33:17;6.70;99.90
1123;DHT22;548;48.778;9.252;2023-01-10T17:35:44;6.70;99.90
1123;DHT22;548;48.778;9.252;2023-01-10T17:38:12;6.60;99.90
1123;DHT22;548;48.778;9.252;2023-01-10T17:40:40;6.60;99.90
1123;DHT22;548;48.778;9.252;2023-01-10T17:43:08;6.60;99.90
1123;DHT22;548;48.778;9.252;2023-01-10T17:45:38;6.60;99.90
1123;DHT22;548;48.778;9.252;2023-01-10T17:48:05;6.60;99.90
1123;DHT22;548;48.778;9.252;2023-01-10T17:50:32;6.60;99.90
1123;DHT22;548;48.778;9.252;2023-01-10T17:52:59;6.60;99.90
1123;DHT22;548;48.778;9.252;2023-01-10T17:55:25;6.70;99.90
1123;DHT22;548;48.778;9.252;2023-01-10T18:00:15;6.60;99.90
1123;DHT22;548;48.778;9.252;2023-01-10T18:02:42;6.60;99.90
1123;DHT22;548;48.778;9.252;2023-01-10T18:05:08;6.70;99.90
1123;DHT22;548;48.778;9.252;2023-01-10T18:07:35;6.50;99.90
1123;DHT22;548;48.778;9.252;2023-01-10T18:10:02;6.50;99.90
1123;DHT22;548;48.778;9.252;2023-01-10T18:12:29;6.50;99.90
1123;DHT22;548;48.778;9.252;2023-01-10T18:14:56;6.60;99.90
1123;DHT22;548;48.778;9.252;2023-01-10T18:17:24;6.60;99.90
1123;DHT22;548;48.778;9.252;2023-01-10T18:19:50;6.50;99.90
1123;DHT22;548;48.778;9.252;2023-01-10T18:22:17;6.30;99.90
1123;DHT22;548;48.778;9.252;2023-01-10T18:25:01;6.50;99.90
1123;DHT22;548;48.778;9.252;2023-01-10T18:27:28;6.50;99.90
1123;DHT22;548;48.778;9.252;2023-01-10T18:29:55;6.50;99.90
1123;DHT22;548;48.778;9.252;2023-01-10T18:32:23;6.50;99.90
1123;DHT22;548;48.778;9.252;2023-01-10T18:34:50;6.60;99.90
1123;DHT22;548;48.778;9.252;2023-01-10T18:37:17;6.60;99.90
1123;DHT22;548;48.778;9.252;2023-01-10T18:39:44;6.70;99.90
1123;DHT22;548;48.778;9.252;2023-01-10T18:42:12;6.60;99.90
1123;DHT22;548;48.778;9.252;2023-01-10T18:44:39;6.70;99.90
1123;DHT22;548;48.778;9.252;2023-01-10T18:47:06;6.60;99.90
1123;DHT22;548;48.778;9.252;2023-01-10T18:49:34;6.60;99.90
1123;DHT22;548;48.778;9.252;2023-01-10T18:52:00;6.60;99.90
1123;DHT22;548;48.778;9.252;2023-01-10T18:54:27;6.60;99.90
1123;DHT22;548;48.778;9.252;2023-01-10T18:56:56;6.60;99.90
1123;DHT22;548;48.778;9.252;2023-01-10T18:59:22;6.70;99.90
1123;DHT22;548;48.778;9.252;2023-01-10T19:01:49;6.70;99.90
1123;DHT22;548;48.778;9.252;2023-01-10T19:04:16;6.70;99.90
1123;DHT22;548;48.778;9.252;2023-01-10T19:06:44;6.60;99.90
1123;DHT22;548;48.778;9.252;2023-01-10T19:09:11;6.70;99.90